createdAt,value
2022-08-17T00:00:49.345Z,48.88
2022-08-17T00:10:49.505Z,49.14
2022-08-17T00:20:56.609Z,49.26
2022-08-17T00:31:03.445Z,49.46
2022-08-17T00:41:10.399Z,49.69
2022-08-17T00:51:17.241Z,49.70
2022-08-17T01:01:24.135Z,49.92
2022-08-17T01:11:31.099Z,49.61
2022-08-17T01:21:38.209Z,49.67
2022-08-17T01:31:45.021Z,49.92
2022-08-17T01:41:51.333Z,49.91
2022-08-17T01:51:57.896Z,49.95
2022-08-17T02:02:06.599Z,49.76
2022-08-17T02:12:39.535Z,49.82
2022-08-17T02:22:24.564Z,49.89
2022-08-17T02:32:31.302Z,49.51
2022-08-17T02:42:38.291Z,49.14
2022-08-17T02:52:44.284Z,48.99
2022-08-17T03:02:54.095Z,49.16
2022-08-17T03:13:00.306Z,49.03
2022-08-17T03:23:06.838Z,48.99
2022-08-17T03:33:16.676Z,48.84
2022-08-17T03:43:22.794Z,49.03
2022-08-17T03:53:28.988Z,49.25
2022-08-17T04:03:34.986Z,49.32
2022-08-17T04:13:41.455Z,49.42
2022-08-17T04:23:47.891Z,49.01
2022-08-17T04:33:54.541Z,48.98
2022-08-17T04:44:00.843Z,49.54
2022-08-17T04:54:07.496Z,48.78
2022-08-17T05:04:33.137Z,48.75
2022-08-17T05:14:33.103Z,48.60
2022-08-17T05:24:40.807Z,48.17
2022-08-17T05:34:47.456Z,48.14
2022-08-17T05:44:53.558Z,48.52
2022-08-17T05:54:59.629Z,48.31
2022-08-17T06:05:05.643Z,48.29
2022-08-17T06:15:11.992Z,48.28
2022-08-17T06:25:18.710Z,48.20
2022-08-17T06:35:30.035Z,47.84
2022-08-17T06:45:37.634Z,47.59
2022-08-17T06:55:44.712Z,48.30
2022-08-17T07:05:51.437Z,48.17
2022-08-17T07:15:57.899Z,47.08
2022-08-17T07:26:04.478Z,47.31
2022-08-17T07:36:11.607Z,48.78
2022-08-17T07:46:18.573Z,48.64
2022-08-17T07:56:25.385Z,48.29
2022-08-17T08:06:37.270Z,48.41
2022-08-17T08:16:43.894Z,48.19
2022-08-17T08:26:50.908Z,48.12
2022-08-17T08:37:17.583Z,48.62
2022-08-17T08:47:08.791Z,48.50
2022-08-17T08:57:29.063Z,49.08
2022-08-17T09:07:27.473Z,48.88
2022-08-17T09:17:34.556Z,48.83
2022-08-17T09:27:41.266Z,48.42
2022-08-17T09:37:47.433Z,48.59
2022-08-17T09:47:53.785Z,48.69
2022-08-17T09:58:00.693Z,48.94
2022-08-17T10:08:08.205Z,48.88
2022-08-17T10:18:14.942Z,48.97
2022-08-17T10:28:25.833Z,48.57
2022-08-17T10:38:34.293Z,48.73
2022-08-17T10:48:41.580Z,48.52
2022-08-17T10:58:48.678Z,48.19
2022-08-17T11:08:55.995Z,48.29
2022-08-17T11:19:02.473Z,48.52
2022-08-17T11:29:09.270Z,48.25
2022-08-17T11:39:16.258Z,47.77
2022-08-17T11:49:23.274Z,47.71
2022-08-17T11:59:30.050Z,47.17
2022-08-17T12:09:37.385Z,47.65
2022-08-17T12:19:44.302Z,46.85
2022-08-17T12:29:51.130Z,46.98
2022-08-17T12:39:58.654Z,46.83
2022-08-17T12:50:05.962Z,46.89
2022-08-17T13:00:12.735Z,46.82
2022-08-17T13:10:19.879Z,46.55
2022-08-17T13:20:26.535Z,46.58
2022-08-17T13:30:33.488Z,46.43
2022-08-17T13:40:40.266Z,46.43
2022-08-17T13:50:47.129Z,45.82
2022-08-17T14:00:53.624Z,46.10
2022-08-17T14:11:00.152Z,46.05
2022-08-17T14:21:07.158Z,46.50
2022-08-17T14:31:13.401Z,46.17
2022-08-17T14:41:22.281Z,46.60
2022-08-17T14:51:28.898Z,46.18
2022-08-17T15:01:35.234Z,46.59
2022-08-17T15:11:42.554Z,46.76
2022-08-17T15:21:48.920Z,47.20
2022-08-17T15:32:00.471Z,46.77
2022-08-17T15:42:07.843Z,48.05
2022-08-17T15:52:14.744Z,48.58
2022-08-17T16:03:15.877Z,49.09
2022-08-17T16:12:33.286Z,49.46
2022-08-17T16:22:39.820Z,49.57
2022-08-17T16:32:46.978Z,48.70
2022-08-17T16:42:53.484Z,49.90
2022-08-17T16:53:00.356Z,50.27
2022-08-17T17:03:06.954Z,49.75
2022-08-17T17:13:17.563Z,50.41
2022-08-17T17:23:23.649Z,50.55
2022-08-17T17:33:29.784Z,49.71
2022-08-17T17:43:44.361Z,49.60
2022-08-17T17:53:52.562Z,50.15
2022-08-17T18:03:59.291Z,50.25
2022-08-17T18:14:05.036Z,49.85
2022-08-17T18:24:11.176Z,50.01
2022-08-17T18:34:36.090Z,49.80
2022-08-17T18:44:29.311Z,49.90
2022-08-17T18:54:36.537Z,49.82
2022-08-17T19:04:44.886Z,49.81
2022-08-17T19:14:51.296Z,49.69
2022-08-17T19:26:54.671Z,49.94
2022-08-17T19:36:29.135Z,49.79
2022-08-17T19:46:36.086Z,49.80
2022-08-17T19:56:46.444Z,49.49
2022-08-17T20:06:53.730Z,49.36
2022-08-17T20:17:02.766Z,49.34
2022-08-17T20:27:10.004Z,49.53
2022-08-17T20:37:16.740Z,49.60
2022-08-17T20:47:27.186Z,49.55
2022-08-17T20:57:34.575Z,49.11
2022-08-17T21:07:53.468Z,49.11
2022-08-17T21:17:53.390Z,49.60
2022-08-17T21:28:00.400Z,48.72
2022-08-17T21:38:07.508Z,48.01
2022-08-17T21:48:14.067Z,49.70
2022-08-17T21:58:21.075Z,50.11
2022-08-17T22:08:27.862Z,49.74
2022-08-17T22:18:34.572Z,50.42
2022-08-17T22:28:41.553Z,48.11
2022-08-17T22:38:48.257Z,47.59
2022-08-17T22:48:55.046Z,47.40
2022-08-17T22:59:01.808Z,47.54
2022-08-17T23:09:08.714Z,48.11
2022-08-17T23:19:15.902Z,47.56
2022-08-17T23:29:22.469Z,47.74
2022-08-17T23:39:28.509Z,47.68
2022-08-17T23:49:34.989Z,48.23
2022-08-17T23:59:42.226Z,48.29
